CONSULTA PERSONALIZADA Alfaro
      Predicción AEMET      
Valores extremos - medios de hoy
Fecha T (C) P (l/m2) Hr (%) Rs (W/m2) VV (km/h) DV Tint.(C)
Max Med Min Acu Med Med Max Med Max Med Min
 27-02-2017   11,3   6,7   3,2   0,0   83   116   19,1   199   22,8   19,9   17,1 
Datos de hoy
Fecha T (C) P (l/m2) Hr (%) Rs (W/m2) VV (km/h) DV Tint.(C)
Max Med Min Acu Med Med Max Med Max Med Min
 27-02-2017 12:00:00   11,3   11,0   10,5   0,0   67   659   18,0   61   18,0   17,5   17,1 
 27-02-2017 11:45:00   10,6   10,3   10,0   0,0   70   629   13,7   58   18,0   17,7   17,4 
 27-02-2017 11:30:00   10,9   10,4   9,5   0,0   69   596   10,1   57   18,4   18,1   17,5 
 27-02-2017 11:15:00   9,7   9,4   9,2   0,0   74   558   7,9   44   18,3   17,8   17,5 
 27-02-2017 11:00:00   9,4   9,1   8,4   0,0   75   523   7,6   6   18,4   17,9   17,5 
 27-02-2017 10:45:00   8,4   7,8   7,7   0,0   79   485   9,7   37   18,6   18,2   17,8 
 27-02-2017 10:30:00   7,8   7,3   6,9   0,0   82   443   6,5   358   18,5   18,0   17,6 
 27-02-2017 10:15:00   6,9   6,6   6,2   0,0   85   396   7,6   3   18,5   17,9   17,5 
 27-02-2017 10:00:00   6,4   6,1   5,8   0,0   86   352   6,8   11   18,3   18,0   17,7 
 27-02-2017 09:45:00   5,9   5,4   5,0   0,0   88   303   9,4   324   18,7   18,3   17,9 
 27-02-2017 09:30:00   5,1   4,9   4,8   0,0   89   259   7,2   309   18,9   18,4   17,8 
 27-02-2017 09:15:00   4,8   4,3   4,1   0,0   92   220   10,4   317   18,8   18,2   17,9 
 27-02-2017 09:00:00   4,1   3,9   3,7   0,0   94   154   19,1   316   18,8   18,4   18,0 
 27-02-2017 08:45:00   3,7   3,5   3,3   0,0   94   52   18,7   313   18,7   18,4   18,2 
 27-02-2017 08:30:00   3,3   3,3   3,2   0,0   94   35   16,9   312   19,3   18,6   18,3 
 27-02-2017 08:15:00   4,0   3,6   3,3   0,0   94   13   14,4   297   19,6   19,0   18,4 
 27-02-2017 08:00:00   4,1   3,9   3,7   0,0   93   5   7,9   282   19,6   19,2   18,7 
 27-02-2017 07:45:00   4,3   4,0   3,9   0,0   93   1   9,0   264   19,4   18,9   18,6 
 27-02-2017 07:30:00   4,6   4,2   4,0   0,0   92   0   7,9   296   19,4   19,0   18,7 
 27-02-2017 07:15:00   5,1   4,6   4,3   0,0   92   0   3,2   293   19,5   19,2   18,9 
 27-02-2017 07:00:00   4,7   4,3   4,1   0,0   91   0   6,1   263   20,0   19,6   19,0 
 27-02-2017 06:45:00   5,2   4,9   4,7   0,0   90   0   4,3   211   20,1   19,6   19,0 
 27-02-2017 06:30:00   5,3   5,1   4,9   0,0   89   0   7,2   334   20,0   19,5   19,1 
 27-02-2017 06:15:00   5,6   5,5   5,2   0,0   90   0   5,4   54   20,0   19,6   19,3 
 27-02-2017 06:00:00   5,3   5,1   4,6   0,0   92   0   3,6   7   20,0   19,8   19,4 
 27-02-2017 05:45:00   4,6   4,4   4,1   0,0   92   0   5,4   331   20,1   19,8   19,5 
 27-02-2017 05:30:00   5,0   4,1   3,9   0,0   90   0   5,8   329   20,2   19,9   19,5 
 27-02-2017 05:15:00   6,4   5,9   5,0   0,0   84   0   10,4   61   20,3   20,0   19,6 
 27-02-2017 05:00:00   6,7   6,4   6,2   0,0   82   0   8,6   135   20,5   20,1   19,7 
 27-02-2017 04:45:00   7,0   6,7   6,2   0,0   81   0   9,0   88   20,6   20,3   20,0 
 27-02-2017 04:30:00   7,5   7,2   6,5   0,0   79   0   10,4   104   20,6   20,4   20,1 
 27-02-2017 04:15:00   7,4   7,2   6,9   0,0   80   0   10,4   124   20,8   20,5   20,3 
 27-02-2017 04:00:00   7,3   7,2   7,0   0,0   81   0   4,7   124   20,8   20,6   20,3 
 27-02-2017 03:45:00   7,3   7,1   7,0   0,0   82   0   3,6   319   21,3   21,0   20,5 
 27-02-2017 03:30:00   7,0   6,9   6,8   0,0   82   0   4,3   283   21,3   20,8   20,5 
 27-02-2017 03:15:00   7,1   6,8   6,6   0,0   81   0   6,5   293   21,4   21,0   20,7 
 27-02-2017 03:00:00   8,3   8,1   7,1   0,0   76   0   5,4   113   21,5   21,2   20,9 
 27-02-2017 02:45:00   8,2   7,5   7,0   0,0   80   0   6,5   338   22,0   21,6   21,0 
 27-02-2017 02:30:00   7,2   6,8   6,4   0,0   83   0   9,4   308   21,8   21,3   21,0 
 27-02-2017 02:15:00   6,9   6,7   6,4   0,0   83   0   9,4   309   21,7   21,4   21,2 
 27-02-2017 02:00:00   7,5   6,9   6,5   0,0   81   0   8,6   311   22,2   21,9   21,3 
 27-02-2017 01:45:00   8,4   8,2   7,5   0,0   75   0   5,8   318   22,0   21,7   21,3 
 27-02-2017 01:30:00   8,5   8,4   8,4   0,0   75   0   7,2   145   22,4   21,8   21,5 
 27-02-2017 01:15:00   8,6   8,5   8,4   0,0   75   0   9,7   156   22,5   22,0   21,6 
 27-02-2017 01:00:00   9,2   8,8   8,5   0,0   73   0   12,6   121   21,9   21,8   21,7 
 27-02-2017 00:45:00   9,6   9,2   9,0   0,0   70   0   13,3   146   22,5   22,2   21,7 
 27-02-2017 00:30:00   9,3   9,1   8,9   0,0   70   0   10,1   131   22,4   22,1   21,9 
 27-02-2017 00:15:00   10,3   9,7   9,2   0,0   68   0   11,9   174   22,7   22,3   22,0 
 27-02-2017 00:00:00   10,4   9,9   9,7   0,0   67   0   12,6   143   22,8   22,5   22,2 
Datos diarios
Fecha desde Fecha hasta       Visualizar         Exportar Excel  
     
Alfaro - Fecha desde: 20-02-2017 - Fecha hasta: 26-02-2017
Fecha T (C) P (l/m2) Hr (%) Rs (W/m2) VV (km/h) DV Tint.(C)
Max Med Min Acu Med Med Max Med Max Med Min
 26-02-2017   16,3   9,7   2,9   0,0   64   194   14,0   153   24,2   20,5   17,1 
 25-02-2017   19,9   9,9   4,0   0,0   57   200   46,4   269   23,7   17,5   13,5 
 24-02-2017   11,7   9,2   6,2   0,0   71   134   51,8   272   19,8   17,2   15,3 
 23-02-2017   12,3   9,3   5,2   0,0   77   72   18,7   223   22,6   19,7   18,0 
 22-02-2017   16,6   10,4   4,4   0,0   69   185   15,1   198   23,8   20,3   17,1 
 21-02-2017   15,6   9,5   4,5   0,0   70   185   22,0   290   23,2   18,9   15,7 
 20-02-2017   14,4   9,3   5,5   0,0   73   135   29,5   307   21,2   18,1   15,7 
Datos mensuales
        Exportar      
   
Alfaro
Fecha T (C) P (l/m2) Hr (%) Rs (W/m2) VV (km/h) DV Tint.(C)
Max Med Min Acu Med Med Max Med Max Med Min
 Febrero -2017   19,9   9,3   1,8   36,1   74   110   87,5   210   24,9   19,1   13,1 
 Enero -2017   15,2   5,7   -4,3   10,0   72   86   61,2   267   25,6   18,5   10,2 
 Diciembre -2016   14,8   6,3   -0,9   6,6   92   52   47,2   211   20,5   10,3   5,1 
 Noviembre -2016   20,3   9,7   0,5   46,5   78   82   52,9   236   18,8   12,1   6,6 
 Octubre -2016   27,1   15,2   5,5   19,6   71   137   48,6   219   30,1   19,6   -40,0 
 Septiembre-2016   36,8   20,9   11,0   3,5   59   220   79,9   233   36,9   26,1   -40,0 
 Agosto -2016   35,1   23,2   12,7   2,4   51   303   56,2   225   37,1   28,8   19,4 
 Julio -2016   39,1   22,7   11,5   46,6   56   318   57,6   245   38,5   28,2   18,8 
 Junio -2016   35,6   20,2   10,0   8,5   56   325   57,6   243   37,2   25,7   17,1 
 Mayo -2016   29,7   15,7   5,6   45,0   63   270   60,1   217   31,5   21,4   12,7 
 Abril -2016   23,9   12,0   2,5   16,3   62   227   78,8   238   26,2   18,6   11,4 
 Marzo -2016   22,7   8,9   1,3   32,3   69   161   68,0   255   24,4   15,3   9,7 
PARÁMETROS
Desc. Abr. Descripción
T Temperatura del aire
P Precipitación acumulada
Hr Humedad relativa del aire
Rs Radiación solar
VV Velocidad del viento
DV Dirección del viento
Tint Temperatura interior
 
FUNCIONES
Desc. Abr. Descripción
Max Máxima
Med Media
Min Mínima
Acu Acumulado